createdAt,value
2022-11-06T00:02:07.873Z,1.77
2022-11-06T00:04:41.742Z,1.90
2022-11-06T00:07:08.871Z,1.40
2022-11-06T00:09:42.762Z,1.60
2022-11-06T00:12:16.890Z,1.52
2022-11-06T00:14:56.754Z,1.70
2022-11-06T00:17:30.760Z,1.55
2022-11-06T00:20:04.769Z,1.30
2022-11-06T00:22:36.970Z,1.42
2022-11-06T00:25:13.714Z,1.55
2022-11-06T00:27:49.750Z,1.63
2022-11-06T00:30:23.701Z,1.05
2022-11-06T00:32:57.780Z,1.60
2022-11-06T00:35:24.890Z,1.45
2022-11-06T00:37:58.731Z,1.23
2022-11-06T00:40:32.842Z,1.27
2022-11-06T00:43:06.821Z,1.58
2022-11-06T00:45:40.801Z,1.63
2022-11-06T00:48:07.890Z,2.05
2022-11-06T00:50:41.763Z,1.73
2022-11-06T00:53:08.873Z,1.83
2022-11-06T00:55:35.960Z,1.85
2022-11-06T00:58:09.911Z,1.63
2022-11-06T01:00:37.204Z,2.30
2022-11-06T01:03:10.782Z,1.77
2022-11-06T01:05:37.991Z,2.00
2022-11-06T01:08:12.069Z,2.00
2022-11-06T01:10:45.731Z,2.20
2022-11-06T01:13:26.751Z,2.33
2022-11-06T01:16:07.730Z,2.45
2022-11-06T01:18:42.765Z,2.13
2022-11-06T01:21:19.770Z,2.55
2022-11-06T01:23:48.064Z,2.55
2022-11-06T01:26:37.364Z,2.70
2022-11-06T01:29:15.800Z,2.47
2022-11-06T01:31:43.272Z,2.13
2022-11-06T01:34:12.521Z,2.08
2022-11-06T01:36:46.730Z,2.35
2022-11-06T01:39:15.680Z,2.50
2022-11-06T01:41:54.770Z,2.55
2022-11-06T01:44:34.323Z,2.08
2022-11-06T01:47:10.763Z,2.50
2022-11-06T01:49:39.090Z,2.72
2022-11-06T01:52:18.761Z,2.58
2022-11-06T01:54:49.671Z,2.30
2022-11-06T01:57:23.767Z,2.03
2022-11-06T01:59:54.851Z,2.42
2022-11-06T02:02:29.054Z,2.55
2022-11-06T02:04:56.377Z,2.20
2022-11-06T02:07:30.810Z,1.88
2022-11-06T02:09:57.982Z,2.25
2022-11-06T02:12:49.729Z,2.30
2022-11-06T02:15:37.930Z,2.05
2022-11-06T02:18:28.841Z,2.25
2022-11-06T02:21:32.990Z,2.17
2022-11-06T02:24:30.770Z,2.05
2022-11-06T02:27:29.733Z,1.90
2022-11-06T02:30:11.600Z,2.28
2022-11-06T02:33:03.730Z,2.47
2022-11-06T02:35:54.021Z,2.50
2022-11-06T02:38:32.750Z,2.25
2022-11-06T02:41:03.881Z,1.92
2022-11-06T02:43:50.742Z,1.98
2022-11-06T02:46:34.985Z,2.10
2022-11-06T02:49:34.743Z,2.13
2022-11-06T02:52:08.276Z,1.83
2022-11-06T02:54:45.726Z,2.65
2022-11-06T02:57:15.958Z,1.90
2022-11-06T03:00:09.796Z,1.60
2022-11-06T03:02:51.843Z,2.10
2022-11-06T03:05:34.753Z,1.92
2022-11-06T03:08:46.916Z,1.85
2022-11-06T03:11:31.761Z,2.10
2022-11-06T03:14:30.716Z,1.83
2022-11-06T03:17:20.670Z,2.00
2022-11-06T03:20:22.770Z,1.92
2022-11-06T03:23:06.185Z,1.67
2022-11-06T03:25:57.736Z,2.03
2022-11-06T03:28:38.452Z,1.92
2022-11-06T03:31:21.744Z,1.67
2022-11-06T03:34:03.737Z,2.88
2022-11-06T03:36:47.419Z,1.73
2022-11-06T03:39:37.725Z,1.75
2022-11-06T03:42:15.711Z,2.10
2022-11-06T03:44:48.776Z,2.00
2022-11-06T03:47:49.714Z,1.80
2022-11-06T03:50:38.367Z,1.70
2022-11-06T03:53:35.736Z,1.73
2022-11-06T03:56:12.683Z,1.88
2022-11-06T03:58:50.784Z,1.52
2022-11-06T04:01:24.171Z,1.80
2022-11-06T04:04:08.739Z,1.50
2022-11-06T04:06:38.042Z,1.77
2022-11-06T04:09:32.740Z,1.63
2022-11-06T04:12:36.727Z,1.83
2022-11-06T04:15:14.597Z,1.80
2022-11-06T04:17:48.782Z,1.80
2022-11-06T04:20:45.731Z,1.83
2022-11-06T04:23:41.762Z,1.42
2022-11-06T04:26:36.376Z,1.48
2022-11-06T04:29:24.771Z,1.92
2022-11-06T04:32:09.090Z,1.80
2022-11-06T04:35:04.779Z,1.13
2022-11-06T04:38:16.276Z,1.98
2022-11-06T04:40:53.717Z,1.60
2022-11-06T04:43:33.777Z,1.38
2022-11-06T04:46:09.756Z,1.60
2022-11-06T04:48:41.398Z,1.50
2022-11-06T04:51:18.771Z,1.35
2022-11-06T04:53:54.823Z,1.50
2022-11-06T04:56:41.346Z,1.65
2022-11-06T04:59:22.947Z,1.75
2022-11-06T05:01:51.176Z,1.50
2022-11-06T05:04:18.743Z,1.55
2022-11-06T05:06:52.744Z,1.83
2022-11-06T05:09:26.819Z,1.95
2022-11-06T05:12:00.757Z,2.00
2022-11-06T05:14:34.546Z,1.83
2022-11-06T05:17:07.792Z,1.88
2022-11-06T05:19:41.753Z,1.95
2022-11-06T05:22:34.756Z,2.00
2022-11-06T05:25:01.880Z,2.08
2022-11-06T05:27:35.797Z,1.90
2022-11-06T05:30:09.780Z,1.95
2022-11-06T05:32:43.742Z,1.73
2022-11-06T05:35:10.813Z,1.55
2022-11-06T05:37:44.750Z,2.33
2022-11-06T05:40:18.822Z,1.70
2022-11-06T05:42:52.729Z,1.67
2022-11-06T05:45:19.787Z,1.80
2022-11-06T05:47:46.903Z,2.00
2022-11-06T05:50:20.753Z,1.83
2022-11-06T05:52:47.902Z,2.60
2022-11-06T05:55:21.768Z,1.98
2022-11-06T05:57:55.775Z,2.13
2022-11-06T06:00:22.923Z,1.90
2022-11-06T06:02:50.178Z,2.35
2022-11-06T06:05:24.783Z,2.10
2022-11-06T06:07:51.874Z,2.58
2022-11-06T06:10:25.818Z,1.70
2022-11-06T06:12:59.958Z,2.30
2022-11-06T06:15:40.753Z,1.55
2022-11-06T06:18:09.544Z,2.08
2022-11-06T06:20:36.669Z,1.73
2022-11-06T06:23:10.775Z,1.80
2022-11-06T06:25:37.896Z,2.33
2022-11-06T06:28:12.121Z,1.85
2022-11-06T06:30:45.751Z,1.85
2022-11-06T06:33:19.814Z,1.48
2022-11-06T06:35:46.932Z,2.00
2022-11-06T06:38:20.762Z,1.80
2022-11-06T06:40:47.963Z,2.17
2022-11-06T06:43:21.832Z,1.65
2022-11-06T06:45:49.009Z,2.00
2022-11-06T06:48:22.750Z,1.70
2022-11-06T06:50:49.803Z,1.50
2022-11-06T06:53:23.775Z,2.22
2022-11-06T06:55:50.900Z,1.67
2022-11-06T06:58:25.164Z,1.50
2022-11-06T07:00:52.769Z,1.70
2022-11-06T07:03:26.800Z,1.55
2022-11-06T07:05:54.460Z,1.35
2022-11-06T07:08:27.848Z,1.83
2022-11-06T07:11:00.586Z,1.80
2022-11-06T07:13:41.820Z,2.17
2022-11-06T07:16:11.021Z,2.20
2022-11-06T07:18:39.375Z,2.25
2022-11-06T07:21:14.810Z,2.15
2022-11-06T07:23:48.811Z,1.90
2022-11-06T07:26:22.941Z,2.28
2022-11-06T07:28:56.781Z,2.38
2022-11-06T07:31:23.939Z,2.83
2022-11-06T07:33:54.119Z,2.28
2022-11-06T07:36:27.779Z,2.80
2022-11-06T07:38:54.930Z,3.08
2022-11-06T07:41:28.783Z,2.30
2022-11-06T07:43:55.833Z,2.95
2022-11-06T07:46:29.791Z,2.85
2022-11-06T07:48:56.984Z,2.47
2022-11-06T07:51:30.837Z,2.65
2022-11-06T07:53:57.928Z,2.35
2022-11-06T07:56:25.059Z,2.50
2022-11-06T07:58:58.778Z,2.20
2022-11-06T08:01:26.074Z,2.22
2022-11-06T08:03:59.871Z,3.17
2022-11-06T08:06:27.100Z,2.88
2022-11-06T08:09:00.931Z,3.05
2022-11-06T08:11:34.840Z,3.03
2022-11-06T08:14:08.642Z,2.95
2022-11-06T08:16:42.904Z,3.97
2022-11-06T08:19:10.114Z,3.43
2022-11-06T08:21:43.840Z,3.38
2022-11-06T08:24:11.315Z,4.47
2022-11-06T08:26:38.720Z,2.92
2022-11-06T08:29:12.870Z,2.83
2022-11-06T08:31:40.292Z,2.70
2022-11-06T08:34:15.824Z,3.60
2022-11-06T08:36:50.581Z,2.92
2022-11-06T08:39:23.850Z,3.72
2022-11-06T08:41:51.040Z,3.05
2022-11-06T08:44:24.886Z,3.72
2022-11-06T08:46:52.505Z,4.35
2022-11-06T08:49:26.842Z,3.22
2022-11-06T08:51:54.859Z,3.80
2022-11-06T08:54:28.870Z,3.83
2022-11-06T08:56:58.060Z,4.03
2022-11-06T08:59:31.842Z,3.97
2022-11-06T09:01:59.131Z,4.03
2022-11-06T09:04:36.097Z,4.30
2022-11-06T09:07:06.131Z,4.03
2022-11-06T09:09:39.792Z,3.42
2022-11-06T09:12:07.343Z,3.60
2022-11-06T09:14:48.808Z,3.60
2022-11-06T09:17:16.053Z,3.90
2022-11-06T09:19:43.619Z,3.65
2022-11-06T09:22:17.781Z,4.15
2022-11-06T09:25:02.639Z,4.30
2022-11-06T09:27:37.764Z,4.68
2022-11-06T09:30:11.781Z,3.90
2022-11-06T09:32:45.758Z,3.90
2022-11-06T09:35:12.988Z,5.18
2022-11-06T09:37:46.800Z,3.80
2022-11-06T09:40:38.698Z,4.13
2022-11-06T09:44:06.585Z,4.72
2022-11-06T09:46:44.411Z,4.18
2022-11-06T09:49:26.774Z,3.63
2022-11-06T09:52:02.423Z,4.10
2022-11-06T09:55:00.698Z,4.65
2022-11-06T09:57:40.389Z,4.82
2022-11-06T10:00:18.881Z,4.00
2022-11-06T10:02:53.923Z,4.63
2022-11-06T10:05:36.910Z,4.60
2022-11-06T10:08:28.795Z,3.75
2022-11-06T10:11:14.239Z,4.07
2022-11-06T10:17:19.846Z,4.53
2022-11-06T10:20:33.540Z,4.35
2022-11-06T10:23:52.860Z,3.58
2022-11-06T10:26:34.984Z,4.05
2022-11-06T10:29:15.555Z,3.88
2022-11-06T10:32:00.885Z,4.47
2022-11-06T10:34:42.886Z,3.30
2022-11-06T10:37:27.874Z,3.15
2022-11-06T10:39:57.753Z,3.45
2022-11-06T10:42:40.795Z,4.38
2022-11-06T10:45:23.995Z,3.17
2022-11-06T10:48:06.011Z,3.53
2022-11-06T10:50:55.918Z,3.83
2022-11-06T10:53:31.905Z,3.58
2022-11-06T10:56:22.856Z,3.65
2022-11-06T10:58:50.075Z,3.92
2022-11-06T11:01:24.101Z,3.67
2022-11-06T11:03:51.985Z,3.40
2022-11-06T11:06:25.893Z,4.18
2022-11-06T11:08:53.208Z,3.72
2022-11-06T11:11:32.803Z,4.47
2022-11-06T11:14:19.777Z,5.13
2022-11-06T11:16:53.787Z,4.03
2022-11-06T11:19:39.433Z,4.57
2022-11-06T11:22:32.830Z,3.95
2022-11-06T11:25:12.818Z,3.60
2022-11-06T11:27:52.814Z,3.60
2022-11-06T11:30:36.859Z,4.35
2022-11-06T11:33:24.509Z,5.22
2022-11-06T11:35:59.851Z,4.55
2022-11-06T11:38:39.029Z,4.57
2022-11-06T11:41:10.012Z,5.05
2022-11-06T11:43:43.817Z,3.95
2022-11-06T11:46:28.433Z,3.88
2022-11-06T11:49:05.060Z,3.53
2022-11-06T11:51:42.682Z,3.40
2022-11-06T11:54:26.895Z,3.92
2022-11-06T11:57:15.910Z,4.07
2022-11-06T12:00:18.894Z,3.97
2022-11-06T12:03:05.955Z,4.88
2022-11-06T12:05:47.870Z,3.83
2022-11-06T12:08:42.891Z,4.07
2022-11-06T12:11:22.865Z,4.20
2022-11-06T12:14:31.827Z,4.28
2022-11-06T12:17:23.184Z,4.03
2022-11-06T12:20:04.804Z,3.60
2022-11-06T12:22:44.857Z,4.03
2022-11-06T12:25:40.855Z,3.17
2022-11-06T12:28:17.284Z,2.25
2022-11-06T12:30:54.846Z,3.22
2022-11-06T12:33:59.641Z,2.83
2022-11-06T12:36:22.820Z,3.50
2022-11-06T12:39:03.339Z,3.10
2022-11-06T12:41:41.800Z,2.72
2022-11-06T12:44:14.793Z,2.38
2022-11-06T12:46:53.811Z,2.40
2022-11-06T12:49:58.531Z,2.88
2022-11-06T12:52:51.850Z,2.33
2022-11-06T12:55:38.888Z,2.95
2022-11-06T12:58:52.964Z,2.42
2022-11-06T13:01:41.798Z,2.25
2022-11-06T13:04:28.872Z,2.05
2022-11-06T13:07:13.020Z,2.40
2022-11-06T13:10:16.942Z,2.72
2022-11-06T13:13:36.043Z,2.75
2022-11-06T13:16:33.055Z,2.45
2022-11-06T13:19:18.878Z,3.10
2022-11-06T13:21:52.022Z,3.47
2022-11-06T13:24:34.890Z,2.63
2022-11-06T13:27:30.099Z,3.00
2022-11-06T13:30:09.939Z,3.30
2022-11-06T13:32:39.770Z,2.58
2022-11-06T13:35:19.945Z,2.70
2022-11-06T13:37:50.204Z,2.22
2022-11-06T13:40:39.909Z,2.55
2022-11-06T13:43:16.795Z,1.60
2022-11-06T13:46:04.120Z,1.70
2022-11-06T13:48:44.520Z,1.90
2022-11-06T13:51:52.946Z,1.67
2022-11-06T13:54:25.950Z,1.25
2022-11-06T13:57:41.879Z,1.50
2022-11-06T14:00:14.824Z,1.52
2022-11-06T14:02:52.098Z,1.52
2022-11-06T14:05:46.563Z,1.80
2022-11-06T14:08:35.929Z,1.80
2022-11-06T14:11:16.605Z,1.73
2022-11-06T14:14:20.937Z,1.20
2022-11-06T14:17:18.985Z,1.42
2022-11-06T14:19:50.280Z,1.95
2022-11-06T14:22:38.952Z,1.75
2022-11-06T14:25:27.589Z,1.67
2022-11-06T14:28:01.018Z,1.52
2022-11-06T14:31:11.118Z,1.20
2022-11-06T14:33:48.911Z,1.20
2022-11-06T14:36:25.101Z,0.85
2022-11-06T14:39:00.973Z,0.98
2022-11-06T14:41:38.801Z,1.20
2022-11-06T14:44:20.129Z,1.00
2022-11-06T14:46:59.950Z,1.05
2022-11-06T14:49:48.959Z,1.10
2022-11-06T14:52:20.509Z,0.90
2022-11-06T14:55:08.190Z,1.23
2022-11-06T14:57:53.714Z,1.20
2022-11-06T15:03:38.930Z,1.10
2022-11-06T15:06:43.810Z,1.42
2022-11-06T15:09:32.920Z,1.20
2022-11-06T15:12:04.980Z,1.30
2022-11-06T15:14:45.890Z,1.20
2022-11-06T15:17:23.186Z,1.30
2022-11-06T15:20:20.945Z,0.95
2022-11-06T15:22:58.013Z,0.80
2022-11-06T15:25:34.976Z,1.10
2022-11-06T15:28:14.767Z,1.10
2022-11-06T15:31:15.935Z,0.90
2022-11-06T15:34:05.561Z,1.00
2022-11-06T15:36:46.956Z,1.00
2022-11-06T15:39:32.547Z,1.05
2022-11-06T15:42:06.945Z,1.50
2022-11-06T15:44:46.887Z,1.30
2022-11-06T15:47:26.127Z,1.30
2022-11-06T15:50:28.906Z,1.05
2022-11-06T15:53:17.219Z,1.30
2022-11-06T15:56:15.731Z,1.70
2022-11-06T15:58:44.715Z,1.77
2022-11-06T16:01:18.929Z,1.70
2022-11-06T16:03:51.668Z,1.70
2022-11-06T16:06:27.066Z,1.38
2022-11-06T16:08:54.285Z,1.60
2022-11-06T16:11:27.965Z,1.20
2022-11-06T16:14:02.312Z,1.10
2022-11-06T16:16:45.877Z,1.40
2022-11-06T16:19:32.001Z,1.58
2022-11-06T16:22:26.907Z,1.50
2022-11-06T16:25:00.746Z,1.42
2022-11-06T16:27:39.871Z,1.35
2022-11-06T16:30:07.810Z,0.85
2022-11-06T16:32:48.883Z,1.25
2022-11-06T16:35:36.832Z,1.20
2022-11-06T16:41:12.167Z,1.20
2022-11-06T16:43:45.875Z,1.50
2022-11-06T16:46:13.032Z,0.98
2022-11-06T16:48:51.982Z,1.13
2022-11-06T16:51:34.057Z,1.25
2022-11-06T16:54:08.921Z,1.02
2022-11-06T16:56:36.119Z,1.05
2022-11-06T16:59:21.966Z,0.98
2022-11-06T17:01:49.305Z,0.90
2022-11-06T17:04:32.967Z,1.30
2022-11-06T17:07:00.216Z,1.45
2022-11-06T17:09:36.918Z,1.30
2022-11-06T17:12:11.924Z,1.50
2022-11-06T17:14:56.960Z,1.52
2022-11-06T17:17:34.260Z,1.73
2022-11-06T17:20:11.977Z,1.33
2022-11-06T17:22:46.117Z,1.65
2022-11-06T17:25:13.845Z,1.67
2022-11-06T17:27:48.074Z,1.75
2022-11-06T17:30:16.460Z,2.47
2022-11-06T17:32:43.995Z,2.45
2022-11-06T17:35:18.155Z,2.58
2022-11-06T17:37:52.135Z,2.77
2022-11-06T17:40:19.781Z,2.40
2022-11-06T17:42:54.135Z,2.63
2022-11-06T17:45:22.022Z,2.20
2022-11-06T17:47:56.127Z,2.38
2022-11-06T17:50:24.015Z,1.98
2022-11-06T17:52:58.199Z,1.98
2022-11-06T17:55:25.867Z,2.10
2022-11-06T17:58:00.136Z,2.05
2022-11-06T18:00:29.714Z,2.00
2022-11-06T18:03:05.229Z,2.15
2022-11-06T18:05:32.865Z,1.90
2022-11-06T18:08:07.026Z,1.80
2022-11-06T18:10:34.606Z,2.37
2022-11-06T18:13:09.016Z,1.83
2022-11-06T18:15:44.210Z,2.42
2022-11-06T18:18:19.089Z,2.60
2022-11-06T18:20:52.205Z,2.38
2022-11-06T18:23:27.050Z,2.40
2022-11-06T18:25:58.414Z,2.30
2022-11-06T18:28:33.114Z,2.00
2022-11-06T18:31:08.135Z,1.95
2022-11-06T18:36:18.117Z,1.77
2022-11-06T18:38:46.027Z,1.95
2022-11-06T18:41:24.125Z,1.45
2022-11-06T18:44:04.125Z,2.20
2022-11-06T18:46:32.127Z,2.00
2022-11-06T18:49:00.088Z,2.78
2022-11-06T18:51:38.626Z,1.80
2022-11-06T18:54:08.940Z,2.92
2022-11-06T18:56:44.065Z,2.90
2022-11-06T19:01:57.290Z,2.35
2022-11-06T19:04:26.701Z,2.10
2022-11-06T19:07:01.490Z,1.95
2022-11-06T19:09:36.105Z,2.03
2022-11-06T19:12:04.022Z,2.17
2022-11-06T19:14:52.165Z,1.95
2022-11-06T19:17:19.867Z,1.83
2022-11-06T19:19:47.966Z,2.22
2022-11-06T19:22:22.087Z,2.20
2022-11-06T19:24:49.760Z,1.77
2022-11-06T19:27:24.046Z,2.35
2022-11-06T19:29:59.107Z,2.38
2022-11-06T19:35:00.730Z,2.00
2022-11-06T19:37:36.390Z,2.20
2022-11-06T19:40:06.083Z,2.08
2022-11-06T19:42:41.115Z,1.73
2022-11-06T19:45:16.116Z,2.45
2022-11-06T19:47:43.891Z,1.95
2022-11-06T19:50:11.576Z,2.28
2022-11-06T19:52:48.409Z,2.28
2022-11-06T19:55:27.837Z,2.55
2022-11-06T19:58:05.221Z,2.08
2022-11-06T20:00:32.956Z,1.85
2022-11-06T20:03:07.125Z,1.60
2022-11-06T20:05:35.245Z,2.00
2022-11-06T20:08:10.074Z,1.38
2022-11-06T20:10:38.334Z,1.90
2022-11-06T20:13:13.320Z,1.85
2022-11-06T20:18:38.113Z,1.88
2022-11-06T20:21:07.923Z,1.90
2022-11-06T20:23:43.084Z,2.05
2022-11-06T20:28:45.105Z,1.83
2022-11-06T20:31:13.720Z,2.97
2022-11-06T20:33:48.115Z,1.88
2022-11-06T20:36:30.119Z,2.08
2022-11-06T20:39:00.456Z,1.70
2022-11-06T20:41:36.129Z,2.70
2022-11-06T20:44:03.664Z,1.63
2022-11-06T20:46:38.099Z,2.45
2022-11-06T20:49:05.772Z,1.90
2022-11-06T20:52:11.558Z,2.20
2022-11-06T20:54:27.754Z,2.25
2022-11-06T20:57:02.111Z,2.17
2022-11-06T20:59:29.755Z,1.98
2022-11-06T21:02:04.164Z,1.83
2022-11-06T21:04:31.570Z,1.80
2022-11-06T21:06:58.852Z,2.05
2022-11-06T21:09:33.119Z,1.92
2022-11-06T21:12:00.384Z,1.90
2022-11-06T21:14:35.075Z,2.28
2022-11-06T21:17:08.978Z,2.17
2022-11-06T21:19:43.099Z,2.20
2022-11-06T21:22:10.293Z,1.73
2022-11-06T21:24:44.128Z,2.50
2022-11-06T21:27:11.385Z,2.35
2022-11-06T21:29:38.609Z,2.30
2022-11-06T21:32:13.137Z,3.15
2022-11-06T21:34:40.235Z,2.75
2022-11-06T21:37:14.056Z,2.55
2022-11-06T21:39:41.294Z,2.75
2022-11-06T21:42:14.944Z,2.70
2022-11-06T21:44:49.004Z,2.13
2022-11-06T21:47:22.954Z,2.47
2022-11-06T21:49:54.180Z,2.38
2022-11-06T21:52:48.000Z,2.53
2022-11-06T21:55:40.109Z,2.28
2022-11-06T21:58:14.160Z,2.53
2022-11-06T22:00:41.562Z,2.88
2022-11-06T22:03:16.138Z,2.85
2022-11-06T22:05:44.104Z,1.92
2022-11-06T22:08:11.367Z,2.33
2022-11-06T22:10:44.900Z,2.10
2022-11-06T22:13:18.928Z,2.67
2022-11-06T22:16:00.944Z,2.05
2022-11-06T22:18:36.966Z,2.75
2022-11-06T22:21:25.917Z,2.00
2022-11-06T22:24:00.070Z,2.22
2022-11-06T22:26:33.194Z,2.40
2022-11-06T22:29:09.934Z,2.63
2022-11-06T22:31:36.994Z,2.50
2022-11-06T22:34:10.898Z,2.60
2022-11-06T22:36:44.917Z,2.72
2022-11-06T22:39:12.751Z,2.50
2022-11-06T22:41:46.901Z,2.13
2022-11-06T22:44:20.940Z,2.10
2022-11-06T22:46:47.987Z,2.58
2022-11-06T22:49:15.032Z,2.28
2022-11-06T22:51:49.092Z,2.20
2022-11-06T22:54:16.173Z,2.22
2022-11-06T22:56:49.919Z,2.20
2022-11-06T22:59:23.923Z,2.40
2022-11-06T23:01:50.998Z,2.50
2022-11-06T23:04:24.949Z,2.42
2022-11-06T23:06:58.998Z,2.25
2022-11-06T23:09:26.123Z,2.17
2022-11-06T23:11:59.932Z,2.90
2022-11-06T23:14:34.927Z,2.22
2022-11-06T23:17:08.934Z,2.60
2022-11-06T23:19:36.090Z,2.65
2022-11-06T23:22:27.908Z,2.75
2022-11-06T23:24:56.196Z,2.38
2022-11-06T23:27:31.067Z,1.92
2022-11-06T23:30:00.889Z,2.33
2022-11-06T23:32:29.087Z,2.20
2022-11-06T23:35:04.669Z,2.22
2022-11-06T23:37:32.142Z,2.15
2022-11-06T23:40:05.971Z,2.67
2022-11-06T23:42:39.942Z,2.10
2022-11-06T23:45:26.089Z,2.50
2022-11-06T23:48:04.506Z,2.92
2022-11-06T23:50:41.017Z,2.50
2022-11-06T23:53:15.318Z,2.67
2022-11-06T23:55:43.123Z,2.63
2022-11-06T23:58:16.967Z,2.70
